createdAt,value
2023-05-14T00:01:38.303Z,100306.70
2023-05-14T00:04:41.375Z,100298.34
2023-05-14T00:07:44.141Z,100294.58
2023-05-14T00:10:46.715Z,100293.50
2023-05-14T00:13:50.696Z,100287.88
2023-05-14T00:16:53.369Z,100287.35
2023-05-14T00:19:56.543Z,100281.45
2023-05-14T00:22:59.205Z,100281.74
2023-05-14T00:26:01.827Z,100275.25
2023-05-14T00:29:04.560Z,100276.59
2023-05-14T00:32:07.722Z,100271.94
2023-05-14T00:35:10.563Z,100273.14
2023-05-14T00:38:17.240Z,100269.55
2023-05-14T00:41:19.912Z,100272.14
2023-05-14T00:44:22.480Z,100272.38
2023-05-14T00:47:25.150Z,100271.56
2023-05-14T00:50:27.804Z,100270.05
2023-05-14T00:53:31.695Z,100268.34
2023-05-14T00:56:35.592Z,100267.92
2023-05-14T00:59:40.987Z,100271.15
2023-05-14T01:02:43.642Z,100266.30
2023-05-14T01:06:01.276Z,100267.30
2023-05-14T01:09:33.555Z,100263.54
2023-05-14T01:12:42.137Z,100262.37
2023-05-14T01:15:47.490Z,100263.49
2023-05-14T01:18:51.818Z,100269.56
2023-05-14T01:21:54.524Z,100267.41
2023-05-14T01:24:57.086Z,100262.91
2023-05-14T01:28:09.280Z,100263.73
2023-05-14T01:31:25.194Z,100261.48
2023-05-14T01:34:29.947Z,100241.92
2023-05-14T01:37:33.032Z,100257.55
2023-05-14T01:40:36.794Z,100252.59
2023-05-14T01:43:39.682Z,100248.84
2023-05-14T01:46:42.312Z,100248.91
2023-05-14T01:49:44.995Z,100242.70
2023-05-14T01:52:48.484Z,100242.30
2023-05-14T01:55:51.058Z,100243.34
2023-05-14T01:58:54.129Z,100241.04
2023-05-14T02:01:56.786Z,100238.61
2023-05-14T02:04:59.567Z,100241.84
2023-05-14T02:08:02.147Z,100240.77
2023-05-14T02:11:04.701Z,100238.44
2023-05-14T02:14:07.356Z,100238.96
2023-05-14T02:17:10.034Z,100236.01
2023-05-14T02:20:13.141Z,100237.12
2023-05-14T02:23:15.805Z,100231.86
2023-05-14T02:26:18.433Z,100233.81
2023-05-14T02:29:20.997Z,100232.17
2023-05-14T02:32:23.698Z,100229.73
2023-05-14T02:35:26.528Z,100234.58
2023-05-14T02:38:29.189Z,100235.49
2023-05-14T02:41:31.859Z,100231.86
2023-05-14T02:44:34.525Z,100236.16
2023-05-14T02:47:37.990Z,100234.10
2023-05-14T02:50:40.969Z,100233.36
2023-05-14T02:53:43.496Z,100233.70
2023-05-14T02:56:46.317Z,100235.58
2023-05-14T02:59:48.879Z,100234.27
2023-05-14T03:02:51.880Z,100232.48
2023-05-14T03:05:57.989Z,100225.66
2023-05-14T03:09:00.665Z,100229.04
2023-05-14T03:12:03.434Z,100226.31
2023-05-14T03:15:06.518Z,100232.59
2023-05-14T03:18:09.166Z,100230.38
2023-05-14T03:21:12.041Z,100234.27
2023-05-14T03:24:14.610Z,100233.45
2023-05-14T03:27:17.155Z,100228.45
2023-05-14T03:30:19.726Z,100230.91
2023-05-14T03:33:22.913Z,100232.16
2023-05-14T03:36:25.882Z,100227.42
2023-05-14T03:39:28.534Z,100225.57
2023-05-14T03:42:31.205Z,100224.26
2023-05-14T03:45:33.984Z,100226.05
2023-05-14T03:48:36.664Z,100225.53
2023-05-14T03:51:39.488Z,100218.73
2023-05-14T03:54:46.979Z,100220.88
2023-05-14T03:57:49.656Z,100216.71
2023-05-14T04:01:05.354Z,100215.38
2023-05-14T04:04:07.988Z,100218.23
2023-05-14T04:07:10.767Z,100216.73
2023-05-14T04:10:14.011Z,100214.33
2023-05-14T04:13:16.548Z,100215.72
2023-05-14T04:16:19.290Z,100209.25
2023-05-14T04:19:22.114Z,100208.74
2023-05-14T04:22:24.782Z,100206.34
2023-05-14T04:25:27.452Z,100206.58
2023-05-14T04:28:30.623Z,100206.27
2023-05-14T04:31:33.362Z,100206.39
2023-05-14T04:34:36.465Z,100205.44
2023-05-14T04:37:39.333Z,100205.05
2023-05-14T04:40:42.988Z,100207.20
2023-05-14T04:43:47.352Z,100206.58
2023-05-14T04:46:50.089Z,100204.75
2023-05-14T04:49:52.672Z,100204.33
2023-05-14T04:52:56.134Z,100198.13
2023-05-14T04:55:58.697Z,100195.78
2023-05-14T04:59:01.259Z,100191.52
2023-05-14T05:02:04.034Z,100194.11
2023-05-14T05:05:07.221Z,100188.07
2023-05-14T05:08:11.557Z,100193.58
2023-05-14T05:11:14.287Z,100191.14
2023-05-14T05:14:17.048Z,100193.18
2023-05-14T05:17:19.651Z,100195.44
2023-05-14T05:20:23.532Z,100195.91
2023-05-14T05:23:26.212Z,100196.36
2023-05-14T05:26:28.833Z,100199.54
2023-05-14T05:29:31.712Z,100195.13
2023-05-14T05:32:34.738Z,100191.85
2023-05-14T05:35:37.933Z,100187.25
2023-05-14T05:38:40.548Z,100189.17
2023-05-14T05:41:43.900Z,100185.84
2023-05-14T05:44:46.463Z,100183.98
2023-05-14T05:47:49.236Z,100181.01
2023-05-14T05:50:51.941Z,100181.19
2023-05-14T05:53:54.668Z,100183.09
2023-05-14T05:56:57.181Z,100182.09
2023-05-14T05:59:59.793Z,100186.01
2023-05-14T06:03:02.470Z,100178.96
2023-05-14T06:06:05.328Z,100172.30
2023-05-14T06:09:09.367Z,100171.86
2023-05-14T06:12:12.032Z,100171.93
2023-05-14T06:15:14.682Z,100172.35
2023-05-14T06:18:17.522Z,100170.66
2023-05-14T06:21:20.390Z,100174.58
2023-05-14T06:24:22.951Z,100175.09
2023-05-14T06:27:25.594Z,100173.63
2023-05-14T06:30:28.319Z,100170.97
2023-05-14T06:33:31.458Z,100170.07
2023-05-14T06:36:34.532Z,100166.63
2023-05-14T06:39:37.798Z,100166.20
2023-05-14T06:42:40.383Z,100161.89
2023-05-14T06:45:43.041Z,100158.40
2023-05-14T06:48:45.922Z,100157.63
2023-05-14T06:51:48.537Z,100155.58
2023-05-14T06:54:54.719Z,100153.32
2023-05-14T06:57:57.597Z,100157.45
2023-05-14T07:01:00.633Z,100154.38
2023-05-14T07:04:03.658Z,100147.23
2023-05-14T07:07:06.435Z,100147.15
2023-05-14T07:10:09.048Z,100143.83
2023-05-14T07:13:11.612Z,100143.02
2023-05-14T07:16:32.836Z,100147.01
2023-05-14T07:19:35.485Z,100134.48
2023-05-14T07:22:38.047Z,100137.97
2023-05-14T07:25:40.925Z,100134.95
2023-05-14T07:28:43.468Z,100130.42
2023-05-14T07:31:46.314Z,100130.64
2023-05-14T07:34:49.143Z,100125.06
2023-05-14T07:37:51.780Z,100126.23
2023-05-14T07:40:54.628Z,100123.38
2023-05-14T07:43:57.322Z,100121.69
2023-05-14T07:46:59.942Z,100119.81
2023-05-14T07:50:03.645Z,100116.64
2023-05-14T07:53:06.344Z,100115.63
2023-05-14T07:56:09.030Z,100113.38
2023-05-14T07:59:11.673Z,100108.70
2023-05-14T08:02:16.155Z,100101.89
2023-05-14T08:05:18.967Z,100101.22
2023-05-14T08:08:21.924Z,100105.16
2023-05-14T08:11:24.543Z,100106.48
2023-05-14T08:14:27.327Z,100106.55
2023-05-14T08:17:30.268Z,100099.27
2023-05-14T08:20:32.845Z,100095.55
2023-05-14T08:23:35.878Z,100096.66
2023-05-14T08:26:42.116Z,100094.17
2023-05-14T08:29:44.708Z,100097.13
2023-05-14T08:32:47.368Z,100093.92
2023-05-14T08:35:56.344Z,100093.05
2023-05-14T08:38:58.926Z,100073.05
2023-05-14T08:42:05.771Z,100083.64
2023-05-14T08:49:33.884Z,100082.93
2023-05-14T08:52:36.548Z,100080.48
2023-05-14T08:55:39.154Z,100078.16
2023-05-14T08:58:41.886Z,100076.88
2023-05-14T09:01:48.060Z,100073.59
2023-05-14T09:04:56.078Z,100067.45
2023-05-14T09:07:59.291Z,100071.25
2023-05-14T09:11:01.950Z,100068.23
2023-05-14T09:14:04.621Z,100075.17
2023-05-14T09:17:07.999Z,100069.64
2023-05-14T09:20:13.030Z,100069.10
2023-05-14T09:23:15.665Z,100062.08
2023-05-14T09:26:18.885Z,100060.92
2023-05-14T09:29:21.829Z,100071.95
2023-05-14T09:32:24.522Z,100066.86
2023-05-14T09:35:27.250Z,100061.80
2023-05-14T09:38:33.872Z,100057.04
2023-05-14T09:41:37.609Z,100048.67
2023-05-14T09:44:42.242Z,100047.71
2023-05-14T09:47:45.420Z,100046.78
2023-05-14T09:50:48.382Z,100041.35
2023-05-14T09:53:53.640Z,100036.83
2023-05-14T09:56:56.238Z,100031.82
2023-05-14T09:59:58.797Z,100028.69
2023-05-14T10:03:08.214Z,100021.70
2023-05-14T10:06:13.335Z,100018.21
2023-05-14T10:09:19.674Z,100021.66
2023-05-14T10:12:23.504Z,100016.95
2023-05-14T10:15:57.692Z,100013.85
2023-05-14T10:19:10.433Z,100014.27
2023-05-14T10:22:16.588Z,100010.09
2023-05-14T10:25:19.611Z,99999.16
2023-05-14T10:28:22.392Z,99997.91
2023-05-14T10:31:48.226Z,99998.13
2023-05-14T10:34:52.090Z,99995.25
2023-05-14T10:37:54.633Z,99994.04
2023-05-14T10:41:00.052Z,99988.98
2023-05-14T10:44:10.260Z,99985.06
2023-05-14T10:47:13.392Z,99987.04
2023-05-14T10:50:16.254Z,99985.97
2023-05-14T10:53:19.712Z,99979.28
2023-05-14T10:56:28.717Z,99980.30
2023-05-14T10:59:34.351Z,99980.18
2023-05-14T11:02:38.926Z,99975.15
2023-05-14T11:05:42.135Z,99966.27
2023-05-14T11:08:46.681Z,99962.17
2023-05-14T11:12:05.090Z,99958.95
2023-05-14T11:15:10.385Z,99951.65
2023-05-14T11:18:13.080Z,99950.09
2023-05-14T11:21:17.440Z,99950.69
2023-05-14T11:24:20.074Z,99948.20
2023-05-14T11:27:24.019Z,99951.61
2023-05-14T11:30:26.804Z,99950.73
2023-05-14T11:33:29.455Z,99947.09
2023-05-14T11:36:32.539Z,99944.98
2023-05-14T11:39:37.581Z,99941.15
2023-05-14T11:42:40.702Z,99944.02
2023-05-14T11:45:43.441Z,99939.33
2023-05-14T11:48:46.271Z,99936.23
2023-05-14T11:52:00.288Z,99936.34
2023-05-14T11:55:03.367Z,99932.67
2023-05-14T11:58:06.134Z,99928.09
2023-05-14T12:01:13.403Z,99918.98
2023-05-14T12:04:19.012Z,99920.06
2023-05-14T12:07:21.700Z,99922.39
2023-05-14T12:10:24.990Z,99914.48
2023-05-14T12:13:29.940Z,99913.20
2023-05-14T12:16:33.180Z,99912.09
2023-05-14T12:19:40.751Z,99909.55
2023-05-14T12:22:43.338Z,99906.06
2023-05-14T12:25:52.289Z,99904.16
2023-05-14T12:29:02.155Z,99906.49
2023-05-14T12:32:09.430Z,99899.45
2023-05-14T12:35:12.090Z,99897.91
2023-05-14T12:39:04.588Z,99894.85
2023-05-14T12:42:07.435Z,99891.35
2023-05-14T12:45:10.633Z,99885.68
2023-05-14T12:52:19.820Z,99875.34
2023-05-14T12:55:27.604Z,99876.77
2023-05-14T12:58:30.154Z,99871.75
2023-05-14T13:01:32.880Z,99876.94
2023-05-14T13:04:35.715Z,99877.76
2023-05-14T13:07:39.241Z,99879.62
2023-05-14T13:10:42.152Z,99873.14
2023-05-14T13:13:44.664Z,99870.11
2023-05-14T13:16:47.253Z,99869.33
2023-05-14T13:19:50.054Z,99865.58
2023-05-14T13:22:52.698Z,99865.49
2023-05-14T13:25:55.377Z,99860.23
2023-05-14T13:28:58.146Z,99852.38
2023-05-14T13:32:00.917Z,99848.48
2023-05-14T13:35:03.648Z,99844.18
2023-05-14T13:38:07.883Z,99842.73
2023-05-14T13:41:10.629Z,99840.64
2023-05-14T13:44:13.215Z,99838.94
2023-05-14T13:47:15.885Z,99831.33
2023-05-14T13:50:18.444Z,99832.27
2023-05-14T13:53:23.145Z,99829.51
2023-05-14T13:56:26.236Z,99832.21
2023-05-14T13:59:28.899Z,99829.66
2023-05-14T14:02:32.260Z,99827.10
2023-05-14T14:05:36.563Z,99817.40
2023-05-14T14:08:39.362Z,99815.76
2023-05-14T14:11:55.922Z,99810.41
2023-05-14T14:14:58.592Z,99805.48
2023-05-14T14:18:01.318Z,99804.86
2023-05-14T14:21:04.642Z,99800.31
2023-05-14T14:24:07.286Z,99800.89
2023-05-14T14:27:10.678Z,99798.98
2023-05-14T14:30:16.937Z,99795.54
2023-05-14T14:33:19.603Z,99787.48
2023-05-14T14:36:22.151Z,99783.04
2023-05-14T14:43:18.153Z,99776.80
2023-05-14T14:46:20.741Z,99770.93
2023-05-14T14:53:31.228Z,99764.46
2023-05-14T14:56:34.007Z,99761.58
2023-05-14T14:59:36.667Z,99755.19
2023-05-14T15:02:42.122Z,99752.38
2023-05-14T15:09:41.926Z,99747.58
2023-05-14T15:12:44.524Z,99742.85
2023-05-14T15:19:52.821Z,99737.06
2023-05-14T15:22:55.876Z,99735.80
2023-05-14T15:25:58.541Z,99728.33
2023-05-14T15:29:01.221Z,99721.27
2023-05-14T15:32:03.992Z,99718.81
2023-05-14T15:35:07.282Z,99716.05
2023-05-14T15:42:24.027Z,99717.02
2023-05-14T15:45:26.818Z,99714.52
2023-05-14T15:48:29.645Z,99710.96
2023-05-14T15:51:32.837Z,99713.33
2023-05-14T15:54:37.062Z,99709.19
2023-05-14T15:57:39.967Z,99708.73
2023-05-14T16:04:50.104Z,99698.06
2023-05-14T16:07:52.866Z,99692.77
2023-05-14T16:11:18.470Z,99693.79
2023-05-14T16:14:21.032Z,99693.52
2023-05-14T16:17:43.939Z,99688.41
2023-05-14T16:20:46.553Z,99687.36
2023-05-14T16:23:49.175Z,99687.73
2023-05-14T16:26:51.845Z,99679.86
2023-05-14T16:33:48.159Z,99675.42
2023-05-14T16:36:51.108Z,99673.32
2023-05-14T16:39:53.774Z,99675.98
2023-05-14T16:42:56.429Z,99672.42
2023-05-14T16:51:15.716Z,99662.15
2023-05-14T16:58:08.677Z,99660.48
2023-05-14T17:01:11.454Z,99657.30
2023-05-14T17:07:56.937Z,99658.41
2023-05-14T17:10:59.606Z,99656.21
2023-05-14T17:14:01.258Z,99652.13
2023-05-14T17:17:03.195Z,99654.91
2023-05-14T17:26:21.947Z,99651.83
2023-05-14T17:29:24.714Z,99649.15
2023-05-14T17:32:29.395Z,99650.85
2023-05-14T17:35:35.981Z,99650.38
2023-05-14T17:42:28.790Z,99649.16
2023-05-14T17:45:39.311Z,99647.71
2023-05-14T17:48:49.269Z,99648.59
2023-05-14T17:51:51.930Z,99650.30
2023-05-14T18:01:19.407Z,99649.23
2023-05-14T18:04:39.310Z,99647.21
2023-05-14T18:07:42.008Z,99651.75
2023-05-14T18:10:44.673Z,99654.23
2023-05-14T18:13:47.232Z,99655.54
2023-05-14T18:16:50.120Z,99658.50
2023-05-14T18:19:52.729Z,99656.80
2023-05-14T18:22:55.462Z,99653.85
2023-05-14T18:25:58.308Z,99656.84
2023-05-14T18:29:00.975Z,99659.46
2023-05-14T18:32:04.052Z,99663.10
2023-05-14T18:35:08.118Z,99665.98
2023-05-14T18:38:12.528Z,99663.30
2023-05-14T18:41:15.293Z,99664.08
2023-05-14T18:44:18.125Z,99664.73
2023-05-14T18:47:21.061Z,99668.43
2023-05-14T18:50:23.719Z,99668.04
2023-05-14T18:53:27.392Z,99670.17
2023-05-14T18:56:30.190Z,99673.68
2023-05-14T18:59:32.841Z,99673.79
2023-05-14T19:02:35.546Z,99672.38
2023-05-14T19:05:38.499Z,99675.36
2023-05-14T19:08:41.671Z,99678.39
2023-05-14T19:11:44.274Z,99678.29
2023-05-14T19:14:46.911Z,99677.14
2023-05-14T19:17:49.924Z,99675.02
2023-05-14T19:20:52.518Z,99677.17
2023-05-14T19:23:55.062Z,99674.42
2023-05-14T19:26:57.855Z,99673.70
2023-05-14T19:30:00.822Z,99669.08
2023-05-14T19:33:03.621Z,99667.07
2023-05-14T19:36:06.463Z,99665.42
2023-05-14T19:39:09.011Z,99663.98
2023-05-14T19:42:11.540Z,99660.91
2023-05-14T19:45:15.334Z,99657.04
2023-05-14T19:48:19.313Z,99652.02
2023-05-14T19:51:21.838Z,99651.77
2023-05-14T19:54:41.938Z,99646.69
2023-05-14T19:57:44.495Z,99643.88
2023-05-14T20:00:47.454Z,99640.41
2023-05-14T20:03:50.053Z,99637.96
2023-05-14T20:06:52.892Z,99633.53
2023-05-14T20:09:55.496Z,99630.60
2023-05-14T20:12:58.192Z,99632.14
2023-05-14T20:16:00.844Z,99627.64
2023-05-14T20:19:04.047Z,99626.15
2023-05-14T20:22:06.766Z,99626.83
2023-05-14T20:25:10.176Z,99625.44
2023-05-14T20:28:12.756Z,99625.23
2023-05-14T20:31:15.440Z,99619.97
2023-05-14T20:34:19.410Z,99616.06
2023-05-14T20:37:22.102Z,99611.64
2023-05-14T20:40:25.385Z,99612.83
2023-05-14T20:43:28.455Z,99603.20
2023-05-14T20:46:31.126Z,99604.04
2023-05-14T20:49:33.815Z,99600.66
2023-05-14T20:52:36.629Z,99597.31
2023-05-14T20:55:39.596Z,99595.11
2023-05-14T20:58:42.170Z,99589.73
2023-05-14T21:01:45.089Z,99591.29
2023-05-14T21:04:47.870Z,99588.10
2023-05-14T21:07:50.777Z,99584.30
2023-05-14T21:10:53.439Z,99583.23
2023-05-14T21:13:56.005Z,99580.73
2023-05-14T21:16:58.709Z,99581.19
2023-05-14T21:20:01.499Z,99576.98
2023-05-14T21:23:04.111Z,99570.19
2023-05-14T21:26:06.765Z,99565.42
2023-05-14T21:29:09.449Z,99559.74
2023-05-14T21:32:12.299Z,99559.99
2023-05-14T21:35:14.966Z,99562.02
2023-05-14T21:38:17.649Z,99560.13
2023-05-14T21:41:21.193Z,99556.41
2023-05-14T21:44:23.887Z,99561.59
2023-05-14T21:47:27.228Z,99563.35
2023-05-14T21:50:30.031Z,99561.59
2023-05-14T21:53:32.583Z,99556.37
2023-05-14T21:56:36.363Z,99552.45
2023-05-14T21:59:38.913Z,99549.09
2023-05-14T22:02:41.452Z,99549.20
2023-05-14T22:05:44.174Z,99541.34
2023-05-14T22:08:46.851Z,99540.51
2023-05-14T22:11:49.468Z,99538.23
2023-05-14T22:15:00.011Z,99532.97
2023-05-14T22:18:03.400Z,99524.89
2023-05-14T22:21:06.206Z,99515.43
2023-05-14T22:24:08.801Z,99512.64
2023-05-14T22:27:21.400Z,99509.16
2023-05-14T22:30:23.937Z,99504.36
2023-05-14T22:33:26.652Z,99500.40
2023-05-14T22:36:29.636Z,99499.95
2023-05-14T22:39:32.194Z,99500.77
2023-05-14T22:42:34.737Z,99499.02
2023-05-14T22:45:37.348Z,99500.09
2023-05-14T22:48:40.017Z,99499.84
2023-05-14T22:51:42.783Z,99495.73
2023-05-14T22:54:47.058Z,99493.52
2023-05-14T22:57:49.851Z,99491.77
2023-05-14T23:00:52.452Z,99490.15
2023-05-14T23:03:55.087Z,99484.75
2023-05-14T23:06:58.038Z,99480.44
2023-05-14T23:10:00.726Z,99471.97
2023-05-14T23:13:04.201Z,99463.22
2023-05-14T23:16:07.199Z,99461.46
2023-05-14T23:19:09.908Z,99454.44
2023-05-14T23:22:12.715Z,99446.17
2023-05-14T23:25:15.380Z,99444.38
2023-05-14T23:28:18.554Z,99444.43
2023-05-14T23:31:21.348Z,99439.25
2023-05-14T23:34:23.963Z,99444.44
2023-05-14T23:37:26.644Z,99440.48
2023-05-14T23:40:29.163Z,99442.98
2023-05-14T23:43:33.711Z,99440.09
2023-05-14T23:46:36.347Z,99436.21
2023-05-14T23:49:40.882Z,99433.11
2023-05-14T23:52:43.758Z,99426.09
2023-05-14T23:55:46.424Z,99424.97
2023-05-14T23:58:49.198Z,99423.23
